createdAt,value
2019-04-24T00:00:35.461Z,14.40
2019-04-24T00:02:44.757Z,13.90
2019-04-24T00:03:32.084Z,14.00
2019-04-24T00:04:36.143Z,13.90
2019-04-24T00:05:43.177Z,14.30
2019-04-24T00:07:23.734Z,14.00
2019-04-24T00:09:21.844Z,14.10
2019-04-24T00:10:37.738Z,13.90
2019-04-24T00:12:43.224Z,13.80
2019-04-24T00:13:44.294Z,14.00
2019-04-24T00:14:33.819Z,14.50
2019-04-24T00:17:43.923Z,14.10
2019-04-24T00:18:46.353Z,14.30
2019-04-24T00:19:32.029Z,14.10
2019-04-24T00:20:30.608Z,13.80
2019-04-24T00:21:21.421Z,14.60
2019-04-24T00:22:18.213Z,14.30
2019-04-24T00:23:27.254Z,14.90
2019-04-24T00:24:28.975Z,14.10
2019-04-24T00:25:30.441Z,14.50
2019-04-24T00:28:24.663Z,14.60
2019-04-24T00:29:36.014Z,14.60
2019-04-24T00:30:27.498Z,14.30
2019-04-24T00:31:26.640Z,14.30
2019-04-24T00:32:21.767Z,14.20
2019-04-24T00:34:22.932Z,13.90
2019-04-24T00:35:31.391Z,12.70
2019-04-24T00:36:43.994Z,13.10
2019-04-24T00:37:29.637Z,13.20
2019-04-24T00:38:29.986Z,13.50
2019-04-24T00:40:23.157Z,13.20
2019-04-24T00:42:23.382Z,13.60
2019-04-24T00:44:16.498Z,13.70
2019-04-24T00:45:29.917Z,13.90
2019-04-24T00:46:37.382Z,13.70
2019-04-24T00:49:27.578Z,13.40
2019-04-24T00:50:30.139Z,13.80
2019-04-24T00:51:39.651Z,13.10
2019-04-24T00:52:20.282Z,13.60
2019-04-24T00:55:47.351Z,13.60
2019-04-24T00:56:46.308Z,13.10
2019-04-24T00:58:24.474Z,13.60
2019-04-24T00:59:36.348Z,12.90
2019-04-24T01:00:24.514Z,13.50
2019-04-24T01:02:20.244Z,13.30
2019-04-24T01:03:35.194Z,13.40
2019-04-24T01:04:54.460Z,13.20
2019-04-24T01:05:31.704Z,13.30
2019-04-24T01:06:27.482Z,13.30
2019-04-24T01:09:28.786Z,13.20
2019-04-24T01:11:19.062Z,13.10
2019-04-24T01:13:21.496Z,13.60
2019-04-24T01:14:21.129Z,13.00
2019-04-24T01:15:38.757Z,13.70
2019-04-24T01:17:30.139Z,13.30
2019-04-24T01:18:21.788Z,12.60
2019-04-24T01:19:29.890Z,13.10
2019-04-24T01:21:44.584Z,12.60
2019-04-24T01:22:49.413Z,12.80
2019-04-24T01:23:18.732Z,12.90
2019-04-24T01:24:26.710Z,12.40
2019-04-24T01:26:24.015Z,12.40
2019-04-24T01:27:25.106Z,11.90
2019-04-24T01:28:23.540Z,12.40
2019-04-24T01:29:24.167Z,13.20
2019-04-24T01:30:47.088Z,13.00
2019-04-24T01:31:22.968Z,12.80
2019-04-24T01:32:32.512Z,12.60
2019-04-24T01:33:30.339Z,13.10
2019-04-24T01:34:33.646Z,12.90
2019-04-24T01:35:27.793Z,12.90
2019-04-24T01:36:39.014Z,12.80
2019-04-24T01:38:30.835Z,12.90
2019-04-24T01:39:36.549Z,13.30
2019-04-24T01:40:19.655Z,13.30
2019-04-24T01:41:26.437Z,13.40
2019-04-24T01:42:26.636Z,12.80
2019-04-24T01:43:28.613Z,13.10
2019-04-24T01:44:31.944Z,12.60
2019-04-24T01:46:23.187Z,13.00
2019-04-24T01:49:34.998Z,12.90
2019-04-24T01:50:29.490Z,12.60
2019-04-24T01:52:33.325Z,12.30
2019-04-24T01:53:26.483Z,12.70
2019-04-24T01:55:18.435Z,12.50
2019-04-24T01:56:39.952Z,12.10
2019-04-24T01:59:30.541Z,12.60
2019-04-24T02:00:33.972Z,12.50
2019-04-24T02:01:24.420Z,12.10
2019-04-24T02:03:23.603Z,11.70
2019-04-24T02:04:33.669Z,11.80
2019-04-24T02:05:20.068Z,12.00
2019-04-24T02:06:19.555Z,11.80
2019-04-24T02:08:29.220Z,12.60
2019-04-24T02:09:33.162Z,12.10
2019-04-24T02:12:37.376Z,13.20
2019-04-24T02:14:38.734Z,12.70
2019-04-24T02:16:21.175Z,12.90
2019-04-24T02:17:33.421Z,13.20
2019-04-24T02:19:22.744Z,12.40
2019-04-24T02:19:29.508Z,12.20
2019-04-24T02:21:26.550Z,12.30
2019-04-24T02:22:31.300Z,13.30
2019-04-24T02:25:38.009Z,12.50
2019-04-24T02:26:22.216Z,12.50
2019-04-24T02:27:35.155Z,12.80
2019-04-24T02:29:26.513Z,12.30
2019-04-24T02:30:33.151Z,12.00
2019-04-24T02:35:54.129Z,13.10
2019-04-24T02:36:37.694Z,13.00
2019-04-24T02:38:39.973Z,12.70
2019-04-24T02:39:42.938Z,12.70
2019-04-24T02:41:53.620Z,12.20
2019-04-24T02:44:48.275Z,12.60
2019-04-24T02:46:31.165Z,12.30
2019-04-24T02:47:37.019Z,12.70
2019-04-24T02:49:43.137Z,12.80
2019-04-24T02:50:23.001Z,12.40
2019-04-24T02:52:39.707Z,12.30
2019-04-24T02:53:31.375Z,12.00
2019-04-24T02:55:16.816Z,12.10
2019-04-24T02:56:36.010Z,12.00
2019-04-24T02:58:45.997Z,12.40
2019-04-24T02:59:33.874Z,12.30
2019-04-24T03:00:36.225Z,11.80
2019-04-24T03:03:35.004Z,11.70
2019-04-24T03:04:35.463Z,12.20
2019-04-24T03:05:37.553Z,11.90
2019-04-24T03:08:51.770Z,12.00
2019-04-24T03:09:33.486Z,11.80
2019-04-24T03:10:35.672Z,11.80
2019-04-24T03:13:32.653Z,11.80
2019-04-24T03:18:47.481Z,12.00
2019-04-24T03:21:42.356Z,11.30
2019-04-24T03:22:35.973Z,11.60
2019-04-24T03:23:33.936Z,11.10
2019-04-24T03:27:36.621Z,12.60
2019-04-24T03:28:32.102Z,12.60
2019-04-24T03:29:34.732Z,12.20
2019-04-24T03:30:46.946Z,11.80
2019-04-24T03:33:51.960Z,12.80
2019-04-24T03:42:22.882Z,15.20
2019-04-24T03:43:55.214Z,11.30
2019-04-24T03:46:27.677Z,11.90
2019-04-24T03:47:50.409Z,11.80
2019-04-24T03:48:34.486Z,11.40
2019-04-24T03:49:42.900Z,12.00
2019-04-24T03:50:59.998Z,11.60
2019-04-24T03:52:21.939Z,11.80
2019-04-24T03:53:57.656Z,11.80
2019-04-24T03:54:25.054Z,11.30
2019-04-24T03:56:34.624Z,11.20
2019-04-24T03:57:47.157Z,11.80
2019-04-24T03:59:34.760Z,12.20
2019-04-24T04:01:33.698Z,11.80
2019-04-24T04:03:25.802Z,11.30
2019-04-24T04:05:23.093Z,11.60
2019-04-24T04:06:46.704Z,12.30
2019-04-24T04:07:17.225Z,11.80
2019-04-24T04:08:43.175Z,11.90
2019-04-24T04:10:32.721Z,12.20
2019-04-24T04:13:35.434Z,11.70
2019-04-24T04:16:46.390Z,11.50
2019-04-24T04:17:48.926Z,11.80
2019-04-24T04:19:42.054Z,11.50
2019-04-24T04:20:37.068Z,11.30
2019-04-24T04:25:38.805Z,11.90
2019-04-24T04:27:45.484Z,11.50
2019-04-24T04:28:33.417Z,11.60
2019-04-24T04:30:52.049Z,11.90
2019-04-24T04:31:40.953Z,12.00
2019-04-24T04:32:55.097Z,12.20
2019-04-24T04:34:52.088Z,11.70
2019-04-24T04:35:21.924Z,12.10
2019-04-24T04:36:41.825Z,12.40
2019-04-24T04:37:18.767Z,12.50
2019-04-24T04:38:33.626Z,12.50
2019-04-24T04:39:31.201Z,12.00
2019-04-24T04:40:40.802Z,11.90
2019-04-24T04:42:37.141Z,11.40
2019-04-24T04:43:41.833Z,11.90
2019-04-24T04:44:42.432Z,11.60
2019-04-24T04:46:45.886Z,11.70
2019-04-24T04:50:39.853Z,11.40
2019-04-24T04:51:31.145Z,11.50
2019-04-24T04:55:21.639Z,11.30
2019-04-24T04:56:34.169Z,11.00
2019-04-24T04:57:35.805Z,11.90
2019-04-24T04:59:24.905Z,11.20
2019-04-24T05:02:39.211Z,11.50
2019-04-24T05:03:26.445Z,11.20
2019-04-24T05:04:37.229Z,10.90
2019-04-24T05:05:54.477Z,10.80
2019-04-24T05:07:32.779Z,11.30
2019-04-24T05:10:39.489Z,10.70
2019-04-24T05:12:26.778Z,11.00
2019-04-24T05:12:40.305Z,10.30
2019-04-24T05:13:21.847Z,10.30
2019-04-24T05:16:50.898Z,10.40
2019-04-24T05:17:34.245Z,10.40
2019-04-24T05:18:32.802Z,10.80
2019-04-24T05:20:31.808Z,10.40
2019-04-24T05:21:33.475Z,10.50
2019-04-24T05:22:21.901Z,11.40
2019-04-24T05:27:31.911Z,9.70
2019-04-24T05:28:36.804Z,9.00
2019-04-24T05:30:21.818Z,9.00
2019-04-24T05:31:27.252Z,8.90
2019-04-24T05:32:36.536Z,9.30
2019-04-24T05:33:28.239Z,9.20
2019-04-24T05:34:34.306Z,8.80
2019-04-24T05:35:26.307Z,9.30
2019-04-24T05:36:22.121Z,8.90
2019-04-24T05:37:30.355Z,8.90
2019-04-24T05:38:12.311Z,8.40
2019-04-24T05:41:21.473Z,8.50
2019-04-24T05:42:42.438Z,8.40
2019-04-24T05:43:27.083Z,8.20
2019-04-24T05:44:18.845Z,7.90
2019-04-24T05:45:28.970Z,7.80
2019-04-24T05:46:25.688Z,7.40
2019-04-24T05:47:21.046Z,7.00
2019-04-24T05:49:30.233Z,6.80
2019-04-24T05:51:22.593Z,6.80
2019-04-24T05:52:33.108Z,6.50
2019-04-24T05:53:16.938Z,6.50
2019-04-24T05:55:38.217Z,7.00
2019-04-24T05:56:30.902Z,6.50
2019-04-24T05:58:28.104Z,6.30
2019-04-24T06:00:27.682Z,6.40
2019-04-24T06:02:37.953Z,5.80
2019-04-24T06:03:50.675Z,6.10
2019-04-24T06:06:33.213Z,6.70
2019-04-24T06:07:22.439Z,5.90
2019-04-24T06:08:19.071Z,6.40
2019-04-24T06:10:35.688Z,6.10
2019-04-24T06:11:37.088Z,6.20
2019-04-24T06:13:22.145Z,5.60
2019-04-24T06:14:21.087Z,5.90
2019-04-24T06:15:34.571Z,5.40
2019-04-24T06:16:20.893Z,6.00
2019-04-24T06:18:26.911Z,5.80
2019-04-24T06:20:43.976Z,5.70
2019-04-24T06:21:28.491Z,5.90
2019-04-24T06:22:19.696Z,5.50
2019-04-24T06:23:41.479Z,5.80
2019-04-24T06:24:21.514Z,5.60
2019-04-24T06:25:32.711Z,6.00
2019-04-24T06:26:20.385Z,5.60
2019-04-24T06:28:29.264Z,5.60
2019-04-24T06:31:49.111Z,5.80
2019-04-24T06:33:34.147Z,5.90
2019-04-24T06:34:19.549Z,5.60
2019-04-24T06:36:23.401Z,5.70
2019-04-24T06:38:33.731Z,5.50
2019-04-24T06:39:23.460Z,5.50
2019-04-24T06:41:23.959Z,5.60
2019-04-24T06:42:22.048Z,5.50
2019-04-24T06:44:35.176Z,5.30
2019-04-24T06:45:19.263Z,5.60
2019-04-24T06:46:29.009Z,5.50
2019-04-24T06:48:12.383Z,5.50
2019-04-24T06:50:31.342Z,5.70
2019-04-24T06:51:16.202Z,5.60
2019-04-24T06:52:30.476Z,5.90
2019-04-24T06:53:25.069Z,5.70
2019-04-24T06:55:14.942Z,5.40
2019-04-24T06:56:30.872Z,5.40
2019-04-24T06:57:24.590Z,5.40
2019-04-24T06:58:42.347Z,5.30
2019-04-24T06:59:20.695Z,5.60
2019-04-24T07:01:18.985Z,5.40
2019-04-24T07:02:18.141Z,5.40
2019-04-24T07:03:14.865Z,5.90
2019-04-24T07:06:35.144Z,5.60
2019-04-24T07:07:29.319Z,5.20
2019-04-24T07:07:59.744Z,5.70
2019-04-24T07:10:32.671Z,5.50
2019-04-24T07:11:37.504Z,5.30
2019-04-24T07:12:27.350Z,5.20
2019-04-24T07:14:10.020Z,5.20
2019-04-24T07:15:19.635Z,5.10
2019-04-24T07:16:17.053Z,4.90
2019-04-24T07:18:23.975Z,4.80
2019-04-24T07:19:01.926Z,4.80
2019-04-24T07:20:32.408Z,4.90
2019-04-24T07:24:19.223Z,4.80
2019-04-24T07:25:24.414Z,4.90
2019-04-24T07:26:29.249Z,4.70
2019-04-24T07:27:38.298Z,4.60
2019-04-24T07:28:24.962Z,4.80
2019-04-24T07:29:24.021Z,4.70
2019-04-24T07:30:18.093Z,4.90
2019-04-24T07:31:27.028Z,4.70
2019-04-24T07:32:15.493Z,4.70
2019-04-24T07:34:27.275Z,4.90
2019-04-24T07:35:25.186Z,4.60
2019-04-24T07:36:29.478Z,4.60
2019-04-24T07:37:20.469Z,4.70
2019-04-24T07:38:18.664Z,4.50
2019-04-24T07:39:19.291Z,4.40
2019-04-24T07:40:22.451Z,4.50
2019-04-24T07:41:45.553Z,4.50
2019-04-24T07:44:13.037Z,4.40
2019-04-24T07:46:16.853Z,4.90
2019-04-24T07:47:18.573Z,4.90
2019-04-24T07:48:20.266Z,4.80
2019-04-24T07:50:19.887Z,4.90
2019-04-24T07:52:24.973Z,5.20
2019-04-24T07:54:23.078Z,4.90
2019-04-24T07:55:08.235Z,5.00
2019-04-24T07:56:34.543Z,5.00
2019-04-24T07:57:13.936Z,4.70
2019-04-24T07:58:20.732Z,4.90
2019-04-24T08:00:20.975Z,5.00
2019-04-24T08:03:15.547Z,4.90
2019-04-24T08:05:19.598Z,4.80
2019-04-24T08:06:23.612Z,4.60
2019-04-24T08:07:26.645Z,5.10
2019-04-24T08:08:22.232Z,5.10
2019-04-24T08:09:26.620Z,5.10
2019-04-24T08:10:33.704Z,5.00
2019-04-24T08:11:12.706Z,5.10
2019-04-24T08:12:18.801Z,4.90
2019-04-24T08:13:17.173Z,4.90
2019-04-24T08:14:31.813Z,4.80
2019-04-24T08:16:08.548Z,4.90
2019-04-24T08:18:14.451Z,4.70
2019-04-24T08:19:31.583Z,4.60
2019-04-24T08:20:20.660Z,5.00
2019-04-24T08:21:17.798Z,4.80
2019-04-24T08:22:26.769Z,5.00
2019-04-24T08:23:33.480Z,5.30
2019-04-24T08:24:27.904Z,4.80
2019-04-24T08:26:09.808Z,4.80
2019-04-24T08:27:27.799Z,4.70
2019-04-24T08:28:22.454Z,4.70
2019-04-24T08:29:10.361Z,5.00
2019-04-24T08:30:17.919Z,5.40
2019-04-24T08:33:27.268Z,5.20
2019-04-24T08:34:34.315Z,4.70
2019-04-24T08:35:22.986Z,5.00
2019-04-24T08:36:13.203Z,5.00
2019-04-24T08:37:24.425Z,5.10
2019-04-24T08:38:22.510Z,5.20
2019-04-24T08:41:22.920Z,5.10
2019-04-24T08:42:30.173Z,5.10
2019-04-24T08:44:18.827Z,5.20
2019-04-24T08:45:14.507Z,4.90
2019-04-24T08:46:19.935Z,5.10
2019-04-24T08:47:32.519Z,5.00
2019-04-24T08:48:32.728Z,5.50
2019-04-24T08:49:32.667Z,5.40
2019-04-24T08:52:27.466Z,4.90
2019-04-24T08:53:09.968Z,5.10
2019-04-24T08:54:13.094Z,4.90
2019-04-24T08:55:31.946Z,4.80
2019-04-24T08:56:18.250Z,5.20
2019-04-24T08:57:25.619Z,5.40
2019-04-24T08:58:22.377Z,4.90
2019-04-24T08:59:40.896Z,4.50
2019-04-24T09:00:16.537Z,4.60
2019-04-24T09:01:42.924Z,4.70
2019-04-24T09:02:04.746Z,4.60
2019-04-24T09:05:37.608Z,4.60
2019-04-24T09:06:30.052Z,5.10
2019-04-24T09:07:18.441Z,4.70
2019-04-24T09:09:14.761Z,4.90
2019-04-24T09:11:31.310Z,4.80
2019-04-24T09:12:16.568Z,4.90
2019-04-24T09:13:36.521Z,4.60
2019-04-24T09:14:20.356Z,4.60
2019-04-24T09:15:23.280Z,4.60
2019-04-24T09:17:10.540Z,4.40
2019-04-24T09:20:23.779Z,4.90
2019-04-24T09:22:25.855Z,4.60
2019-04-24T09:27:24.517Z,4.60
2019-04-24T09:28:18.460Z,4.70
2019-04-24T09:29:23.553Z,4.50
2019-04-24T09:34:07.464Z,4.40
2019-04-24T09:35:15.273Z,4.60
2019-04-24T09:36:29.792Z,4.60
2019-04-24T09:37:15.916Z,4.50
2019-04-24T09:38:20.449Z,4.20
2019-04-24T09:41:27.796Z,4.60
2019-04-24T09:42:47.949Z,4.30
2019-04-24T09:44:09.412Z,4.60
2019-04-24T09:47:28.701Z,4.40
2019-04-24T09:48:21.520Z,4.20
2019-04-24T09:49:05.534Z,4.60
2019-04-24T09:50:25.021Z,4.50
2019-04-24T09:51:14.754Z,4.60
2019-04-24T09:52:18.378Z,4.30
2019-04-24T09:54:12.276Z,4.30
2019-04-24T09:55:18.296Z,4.60
2019-04-24T09:56:10.831Z,4.30
2019-04-24T09:59:24.643Z,4.50
2019-04-24T10:00:19.753Z,4.30
2019-04-24T10:03:18.803Z,4.40
2019-04-24T10:06:17.293Z,4.40
2019-04-24T10:09:15.374Z,4.20
2019-04-24T10:10:16.838Z,4.40
2019-04-24T10:11:32.664Z,4.30
2019-04-24T10:13:08.499Z,4.20
2019-04-24T10:14:19.197Z,4.60
2019-04-24T10:15:13.355Z,4.30
2019-04-24T10:16:10.465Z,4.40
2019-04-24T10:17:14.039Z,4.50
2019-04-24T10:18:11.486Z,4.40
2019-04-24T10:19:29.973Z,4.40
2019-04-24T10:20:15.090Z,4.40
2019-04-24T10:21:12.911Z,4.70
2019-04-24T10:22:04.951Z,4.50
2019-04-24T10:23:05.125Z,4.70
2019-04-24T10:25:22.053Z,4.10
2019-04-24T10:26:12.656Z,4.40
2019-04-24T10:28:15.960Z,4.40
2019-04-24T10:30:28.261Z,4.20
2019-04-24T10:31:18.695Z,4.20
2019-04-24T10:32:21.790Z,4.20
2019-04-24T10:33:12.479Z,4.10
2019-04-24T10:34:13.210Z,4.10
2019-04-24T10:35:19.500Z,4.10
2019-04-24T10:36:12.141Z,4.00
2019-04-24T10:38:23.553Z,3.90
2019-04-24T10:39:28.339Z,3.80
2019-04-24T10:41:19.629Z,4.20
2019-04-24T10:42:12.210Z,4.40
2019-04-24T10:43:23.336Z,4.30
2019-04-24T10:44:18.643Z,4.10
2019-04-24T10:45:18.484Z,3.80
2019-04-24T10:46:15.647Z,3.90
2019-04-24T10:47:36.451Z,4.00
2019-04-24T10:48:19.333Z,3.70
2019-04-24T10:49:25.082Z,4.10
2019-04-24T10:50:05.517Z,3.90
2019-04-24T10:51:39.810Z,4.00
2019-04-24T10:52:11.663Z,3.90
2019-04-24T10:53:13.057Z,4.30
2019-04-24T10:54:08.932Z,4.30
2019-04-24T10:55:15.990Z,3.80
2019-04-24T10:56:30.739Z,4.30
2019-04-24T10:57:13.060Z,4.00
2019-04-24T10:58:29.928Z,4.20
2019-04-24T10:59:03.412Z,3.80
2019-04-24T11:00:19.361Z,4.10
2019-04-24T11:01:23.612Z,3.80
2019-04-24T11:03:18.884Z,4.20
2019-04-24T11:04:40.761Z,4.30
2019-04-24T11:05:26.153Z,4.20
2019-04-24T11:06:14.603Z,4.20
2019-04-24T11:07:37.272Z,4.00
2019-04-24T11:08:25.508Z,3.80
2019-04-24T11:10:30.262Z,4.00
2019-04-24T11:11:11.116Z,4.50
2019-04-24T11:12:16.358Z,4.40
2019-04-24T11:13:16.994Z,4.20
2019-04-24T11:15:22.019Z,4.00
2019-04-24T11:17:29.280Z,4.20
2019-04-24T11:18:20.650Z,4.40
2019-04-24T11:19:20.044Z,4.00
2019-04-24T11:20:16.135Z,4.10
2019-04-24T11:21:36.574Z,4.10
2019-04-24T11:22:15.118Z,4.40
2019-04-24T11:23:27.863Z,4.30
2019-04-24T11:25:23.777Z,3.90
2019-04-24T11:26:22.222Z,3.90
2019-04-24T11:28:22.176Z,3.80
2019-04-24T11:29:09.862Z,3.50
2019-04-24T11:30:18.670Z,3.60
2019-04-24T11:31:17.767Z,3.10
2019-04-24T11:32:34.837Z,3.20
2019-04-24T11:33:23.674Z,3.30
2019-04-24T11:35:17.258Z,3.90
2019-04-24T11:36:15.180Z,4.40
2019-04-24T11:37:09.388Z,3.50
2019-04-24T11:38:19.091Z,3.70
2019-04-24T11:39:46.251Z,3.60
2019-04-24T11:40:38.545Z,3.80
2019-04-24T11:41:15.476Z,3.60
2019-04-24T11:42:10.406Z,3.80
2019-04-24T11:43:03.260Z,3.40
2019-04-24T11:44:16.468Z,3.70
2019-04-24T11:45:23.216Z,3.50
2019-04-24T11:46:39.732Z,3.30
2019-04-24T11:47:29.956Z,3.60
2019-04-24T11:50:36.591Z,3.40
2019-04-24T11:51:29.161Z,3.40
2019-04-24T11:52:23.809Z,3.40
2019-04-24T11:54:09.559Z,3.50
2019-04-24T11:56:08.302Z,3.50
2019-04-24T11:57:36.036Z,3.80
2019-04-24T11:58:46.608Z,3.80
2019-04-24T11:59:53.785Z,3.40
2019-04-24T12:00:59.773Z,3.80
2019-04-24T12:02:25.348Z,3.40
2019-04-24T12:03:04.745Z,3.50
2019-04-24T12:04:16.916Z,3.70
2019-04-24T12:07:12.050Z,3.30
2019-04-24T12:08:19.617Z,3.00
2019-04-24T12:09:02.540Z,2.90
2019-04-24T12:10:24.701Z,2.90
2019-04-24T12:11:26.185Z,2.80
2019-04-24T12:12:09.741Z,2.50
2019-04-24T12:14:07.607Z,2.50
2019-04-24T12:15:09.091Z,2.80
2019-04-24T12:16:59.641Z,2.50
2019-04-24T12:19:07.831Z,2.50
2019-04-24T12:21:21.759Z,2.10
2019-04-24T12:23:17.683Z,2.20
2019-04-24T12:25:34.694Z,2.70
2019-04-24T12:27:05.112Z,2.50
2019-04-24T12:29:22.464Z,2.70
2019-04-24T12:30:07.883Z,2.40
2019-04-24T12:31:07.782Z,2.30
2019-04-24T12:32:13.352Z,2.30
2019-04-24T12:33:36.347Z,2.60
2019-04-24T12:33:59.922Z,2.80
2019-04-24T12:35:17.839Z,2.60
2019-04-24T12:36:26.646Z,2.50
2019-04-24T12:38:12.365Z,2.40
2019-04-24T12:40:19.629Z,2.40
2019-04-24T12:41:09.815Z,2.50
2019-04-24T12:42:20.708Z,2.20
2019-04-24T12:44:26.516Z,2.40
2019-04-24T12:45:12.421Z,2.50
2019-04-24T12:46:17.799Z,2.00
2019-04-24T12:48:06.412Z,2.30
2019-04-24T12:49:13.867Z,2.30
2019-04-24T12:50:06.929Z,2.30
2019-04-24T12:51:11.879Z,2.60
2019-04-24T12:52:09.918Z,2.50
2019-04-24T12:53:07.000Z,2.50
2019-04-24T12:55:10.571Z,2.40
2019-04-24T12:56:15.406Z,2.10
2019-04-24T12:58:18.149Z,2.30
2019-04-24T12:59:14.670Z,2.20
2019-04-24T13:00:06.349Z,2.10
2019-04-24T13:01:16.643Z,1.90
2019-04-24T13:03:35.499Z,2.10
2019-04-24T13:04:21.686Z,1.80
2019-04-24T13:05:31.225Z,1.90
2019-04-24T13:06:06.561Z,2.10
2019-04-24T13:07:07.162Z,2.10
2019-04-24T13:08:11.202Z,1.50
2019-04-24T13:09:19.406Z,1.50
2019-04-24T13:10:14.214Z,1.60
2019-04-24T13:11:16.054Z,1.70
2019-04-24T13:12:29.241Z,1.50
2019-04-24T13:14:29.778Z,1.70
2019-04-24T13:15:16.261Z,1.80
2019-04-24T13:16:13.650Z,1.70
2019-04-24T13:17:23.051Z,2.00
2019-04-24T13:18:15.707Z,1.70
2019-04-24T13:19:45.042Z,1.80
2019-04-24T13:20:47.197Z,1.60
2019-04-24T13:21:49.911Z,1.80
2019-04-24T13:22:53.182Z,1.60
2019-04-24T13:23:58.455Z,1.90
2019-04-24T13:25:03.570Z,1.70
2019-04-24T13:26:14.172Z,1.70
2019-04-24T13:27:16.255Z,1.60
2019-04-24T13:29:28.424Z,1.60
2019-04-24T13:33:20.900Z,1.50
2019-04-24T13:34:21.557Z,1.70
2019-04-24T13:35:17.922Z,1.50
2019-04-24T13:37:18.645Z,1.50
2019-04-24T13:39:17.047Z,1.50
2019-04-24T13:40:17.885Z,1.60
2019-04-24T13:41:08.153Z,1.60
2019-04-24T13:43:39.560Z,1.60
2019-04-24T13:45:17.136Z,1.70
2019-04-24T13:46:06.461Z,1.70
2019-04-24T13:47:09.463Z,1.60
2019-04-24T13:49:06.292Z,1.80
2019-04-24T13:50:18.381Z,1.60
2019-04-24T13:51:08.185Z,1.80
2019-04-24T13:53:33.835Z,1.80
2019-04-24T13:54:13.417Z,1.80
2019-04-24T13:56:03.361Z,1.90
2019-04-24T13:59:10.341Z,1.80
2019-04-24T14:00:25.730Z,1.50
2019-04-24T14:02:10.137Z,1.70
2019-04-24T14:03:24.930Z,1.70
2019-04-24T14:04:15.535Z,1.50
2019-04-24T14:05:16.756Z,1.70
2019-04-24T14:06:38.679Z,1.50
2019-04-24T14:11:40.135Z,1.60
2019-04-24T14:12:20.152Z,1.70
2019-04-24T14:12:26.631Z,1.70
2019-04-24T14:13:08.717Z,1.50
2019-04-24T14:14:12.446Z,1.70
2019-04-24T14:16:14.873Z,1.50
2019-04-24T14:17:09.691Z,1.30
2019-04-24T14:18:16.702Z,1.60
2019-04-24T14:19:26.211Z,1.50
2019-04-24T14:20:29.649Z,1.80
2019-04-24T14:21:11.237Z,1.60
2019-04-24T14:22:05.898Z,1.70
2019-04-24T14:23:13.286Z,1.70
2019-04-24T14:25:22.412Z,1.70
2019-04-24T14:27:13.322Z,1.50
2019-04-24T14:28:20.043Z,1.80
2019-04-24T14:29:14.635Z,1.40
2019-04-24T14:30:15.552Z,1.50
2019-04-24T14:32:11.451Z,1.70
2019-04-24T14:33:26.179Z,1.30
2019-04-24T14:34:18.922Z,1.60
2019-04-24T14:35:32.804Z,1.70
2019-04-24T14:38:20.640Z,1.40
2019-04-24T14:40:21.586Z,1.40
2019-04-24T14:41:16.947Z,1.60
2019-04-24T14:42:19.496Z,1.50
2019-04-24T14:43:19.204Z,1.50
2019-04-24T14:44:26.684Z,1.60
2019-04-24T14:46:20.330Z,1.60
2019-04-24T14:47:24.075Z,1.70
2019-04-24T14:48:13.429Z,1.60
2019-04-24T14:49:25.612Z,1.40
2019-04-24T14:51:11.081Z,1.40
2019-04-24T14:52:23.952Z,1.40
2019-04-24T14:53:09.741Z,1.70
2019-04-24T14:54:16.190Z,1.70
2019-04-24T14:56:12.514Z,1.50
2019-04-24T14:57:15.081Z,1.60
2019-04-24T14:58:10.357Z,1.50
2019-04-24T14:59:20.809Z,1.60
2019-04-24T15:00:18.792Z,1.50
2019-04-24T15:01:09.835Z,1.60
2019-04-24T15:03:13.134Z,1.50
2019-04-24T15:04:15.379Z,1.30
2019-04-24T15:07:18.206Z,1.50
2019-04-24T15:08:16.995Z,1.50
2019-04-24T15:09:13.586Z,1.50
2019-04-24T15:10:18.311Z,1.70
2019-04-24T15:11:11.121Z,1.40
2019-04-24T15:12:21.214Z,1.60
2019-04-24T15:13:23.518Z,1.70
2019-04-24T15:14:22.674Z,1.60
2019-04-24T15:16:35.984Z,1.50
2019-04-24T15:17:14.279Z,1.50
2019-04-24T15:19:19.495Z,1.30
2019-04-24T15:20:13.816Z,1.50
2019-04-24T15:21:16.261Z,1.30
2019-04-24T15:22:24.298Z,1.60
2019-04-24T15:23:17.733Z,1.50
2019-04-24T15:24:28.491Z,1.40
2019-04-24T15:26:19.109Z,1.50
2019-04-24T15:27:14.038Z,1.40
2019-04-24T15:29:20.158Z,1.40
2019-04-24T15:30:12.814Z,1.50
2019-04-24T15:31:05.351Z,1.60
2019-04-24T15:33:16.155Z,1.50
2019-04-24T15:34:16.441Z,1.40
2019-04-24T15:35:25.120Z,1.40
2019-04-24T15:37:19.021Z,1.50
2019-04-24T15:38:09.925Z,1.60
2019-04-24T15:39:16.828Z,1.30
2019-04-24T15:40:29.395Z,1.40
2019-04-24T15:41:24.772Z,1.40
2019-04-24T15:42:11.225Z,1.60
2019-04-24T15:43:18.549Z,1.40
2019-04-24T15:44:06.985Z,1.30
2019-04-24T15:45:11.649Z,1.50
2019-04-24T15:46:08.593Z,1.40
2019-04-24T15:48:17.601Z,1.30
2019-04-24T15:49:12.598Z,1.50
2019-04-24T15:50:18.446Z,1.50
2019-04-24T15:51:05.623Z,1.50
2019-04-24T15:51:42.569Z,1.60
2019-04-24T15:52:42.591Z,1.40
2019-04-24T15:53:42.545Z,1.40
2019-04-24T15:54:42.542Z,1.30
2019-04-24T15:55:42.531Z,1.70
2019-04-24T15:56:42.537Z,1.60
2019-04-24T15:57:43.800Z,1.40
2019-04-24T15:58:51.727Z,1.60
2019-04-24T16:00:06.364Z,1.60
2019-04-24T16:04:17.748Z,1.60
2019-04-24T16:04:54.825Z,1.30
2019-04-24T16:05:42.405Z,1.30
2019-04-24T16:06:42.388Z,1.30
2019-04-24T16:07:42.380Z,1.30
2019-04-24T16:08:42.369Z,1.60
2019-04-24T16:09:42.349Z,1.30
2019-04-24T16:10:42.345Z,1.30
2019-04-24T16:11:42.331Z,1.40
2019-04-24T16:12:42.323Z,1.10
2019-04-24T16:13:49.580Z,1.30
2019-04-24T16:15:09.664Z,1.30
2019-04-24T16:16:22.379Z,1.30
2019-04-24T16:20:13.700Z,1.30
2019-04-24T16:21:14.152Z,1.10
2019-04-24T16:22:09.663Z,1.20
2019-04-24T16:23:12.629Z,1.30
2019-04-24T16:25:12.677Z,1.10
2019-04-24T16:26:15.791Z,1.00
2019-04-24T16:27:14.332Z,1.10
2019-04-24T16:28:14.314Z,0.90
2019-04-24T16:30:13.897Z,1.20
2019-04-24T16:31:15.814Z,1.30
2019-04-24T16:32:30.532Z,1.20
2019-04-24T16:34:09.809Z,1.30
2019-04-24T16:35:14.955Z,1.10
2019-04-24T16:37:16.669Z,1.30
2019-04-24T16:38:21.672Z,1.20
2019-04-24T16:40:29.871Z,1.50
2019-04-24T16:41:22.574Z,1.30
2019-04-24T16:42:26.396Z,1.30
2019-04-24T16:47:02.896Z,1.10
2019-04-24T16:48:26.678Z,1.10
2019-04-24T16:49:15.769Z,1.20
2019-04-24T16:50:23.476Z,1.10
2019-04-24T16:53:10.123Z,1.10
2019-04-24T16:55:12.241Z,1.10
2019-04-24T16:56:12.030Z,1.40
2019-04-24T16:59:09.878Z,1.20
2019-04-24T17:00:23.784Z,1.10
2019-04-24T17:01:26.953Z,1.00
2019-04-24T17:03:26.193Z,0.90
2019-04-24T17:06:30.086Z,1.10
2019-04-24T17:10:12.463Z,1.30
2019-04-24T17:11:26.487Z,1.20
2019-04-24T17:12:11.885Z,1.00
2019-04-24T17:13:14.832Z,1.00
2019-04-24T17:14:18.486Z,1.20
2019-04-24T17:15:09.731Z,0.90
2019-04-24T17:16:18.490Z,0.90
2019-04-24T17:18:23.639Z,1.00
2019-04-24T17:20:11.040Z,1.10
2019-04-24T17:22:13.540Z,1.00
2019-04-24T17:24:22.995Z,0.90
2019-04-24T17:25:08.727Z,1.10
2019-04-24T17:26:22.902Z,1.10
2019-04-24T17:27:14.892Z,1.10
2019-04-24T17:28:16.046Z,1.00
2019-04-24T17:31:17.171Z,1.20
2019-04-24T17:32:17.677Z,1.00
2019-04-24T17:35:20.544Z,1.00
2019-04-24T17:36:22.315Z,1.00
2019-04-24T17:37:41.169Z,1.10
2019-04-24T17:38:41.152Z,1.10
2019-04-24T17:39:41.142Z,1.30
2019-04-24T17:40:41.120Z,1.10
2019-04-24T17:41:49.078Z,0.90
2019-04-24T17:43:05.147Z,1.20
2019-04-24T17:45:16.254Z,1.40
2019-04-24T17:46:10.780Z,1.10
2019-04-24T17:47:29.715Z,1.50
2019-04-24T17:51:20.332Z,1.40
2019-04-24T17:52:37.727Z,1.00
2019-04-24T17:53:15.016Z,1.50
2019-04-24T17:54:09.388Z,1.60
2019-04-24T17:55:04.686Z,2.10
2019-04-24T17:56:08.503Z,2.80
2019-04-24T17:57:13.131Z,3.40
2019-04-24T17:58:41.482Z,2.90
2019-04-24T17:59:40.846Z,3.40
2019-04-24T18:00:41.934Z,2.20
2019-04-24T18:01:41.272Z,1.60
2019-04-24T18:02:42.116Z,1.50
2019-04-24T18:03:40.784Z,1.50
2019-04-24T18:04:41.626Z,1.80
2019-04-24T18:05:40.791Z,1.70
2019-04-24T18:06:42.092Z,1.30
2019-04-24T18:07:41.483Z,1.40
2019-04-24T18:08:40.708Z,1.30
2019-04-24T18:09:41.944Z,1.40
2019-04-24T18:10:41.701Z,1.70
2019-04-24T18:11:41.810Z,1.60
2019-04-24T18:12:41.771Z,1.70
2019-04-24T18:13:42.056Z,1.90
2019-04-24T18:14:40.800Z,3.10
2019-04-24T18:15:42.191Z,3.60
2019-04-24T18:16:40.585Z,4.50
2019-04-24T18:17:42.106Z,3.40
2019-04-24T18:18:41.139Z,4.00
2019-04-24T18:19:41.964Z,4.50
2019-04-24T18:20:40.526Z,3.00
2019-04-24T18:21:41.560Z,1.90
2019-04-24T18:22:40.961Z,1.60
2019-04-24T18:23:41.929Z,1.60
2019-04-24T18:24:40.457Z,1.60
2019-04-24T18:25:41.327Z,1.70
2019-04-24T18:26:41.954Z,1.20
2019-04-24T18:27:41.988Z,1.40
2019-04-24T18:28:41.770Z,1.40
2019-04-24T18:29:40.380Z,1.40
2019-04-24T18:30:40.368Z,1.60
2019-04-24T18:31:42.046Z,1.30
2019-04-24T18:32:41.858Z,1.60
2019-04-24T18:33:40.313Z,1.50